sensor_id;sensor_type;location;lat;lon;timestamp;temperature;humidity
14053;DHT22;7101;51.600;7.310;2023-10-09T00:01:27;11.70;99.90
14053;DHT22;7101;51.600;7.310;2023-10-09T00:03:57;11.60;99.90
14053;DHT22;7101;51.600;7.310;2023-10-09T00:06:27;11.60;99.90
14053;DHT22;7101;51.600;7.310;2023-10-09T00:09:04;11.60;99.90
14053;DHT22;7101;51.600;7.310;2023-10-09T00:11:42;11.50;99.90
14053;DHT22;7101;51.600;7.310;2023-10-09T00:14:12;11.60;99.90
14053;DHT22;7101;51.600;7.310;2023-10-09T00:16:41;11.60;99.90
14053;DHT22;7101;51.600;7.310;2023-10-09T00:19:16;11.70;99.90
14053;DHT22;7101;51.600;7.310;2023-10-09T00:21:47;11.70;99.90
14053;DHT22;7101;51.600;7.310;2023-10-09T00:24:14;11.80;99.90
14053;DHT22;7101;51.600;7.310;2023-10-09T00:26:49;12.00;99.90
14053;DHT22;7101;51.600;7.310;2023-10-09T00:29:18;12.00;99.90
14053;DHT22;7101;51.600;7.310;2023-10-09T00:31:51;12.20;99.90
14053;DHT22;7101;51.600;7.310;2023-10-09T00:34:22;12.30;99.90
14053;DHT22;7101;51.600;7.310;2023-10-09T00:36:52;12.40;99.90
14053;DHT22;7101;51.600;7.310;2023-10-09T00:39:21;12.60;99.90
14053;DHT22;7101;51.600;7.310;2023-10-09T00:42:06;12.60;99.90
14053;DHT22;7101;51.600;7.310;2023-10-09T00:44:35;12.70;99.90
14053;DHT22;7101;51.600;7.310;2023-10-09T00:47:06;12.70;99.90
14053;DHT22;7101;51.600;7.310;2023-10-09T00:49:37;12.80;99.90
14053;DHT22;7101;51.600;7.310;2023-10-09T00:52:08;12.80;99.90
14053;DHT22;7101;51.600;7.310;2023-10-09T00:54:43;13.00;99.90
14053;DHT22;7101;51.600;7.310;2023-10-09T00:57:17;13.10;99.90
14053;DHT22;7101;51.600;7.310;2023-10-09T00:59:54;13.10;99.90
14053;DHT22;7101;51.600;7.310;2023-10-09T01:02:26;13.20;99.90
14053;DHT22;7101;51.600;7.310;2023-10-09T01:05:03;13.20;99.90
14053;DHT22;7101;51.600;7.310;2023-10-09T01:07:46;13.30;99.90
14053;DHT22;7101;51.600;7.310;2023-10-09T01:10:13;13.40;99.90
14053;DHT22;7101;51.600;7.310;2023-10-09T01:12:42;13.50;99.90
14053;DHT22;7101;51.600;7.310;2023-10-09T01:15:11;13.70;99.90
14053;DHT22;7101;51.600;7.310;2023-10-09T01:18:01;13.70;99.90
14053;DHT22;7101;51.600;7.310;2023-10-09T01:20:33;13.80;99.90
14053;DHT22;7101;51.600;7.310;2023-10-09T01:23:10;13.90;99.90
14053;DHT22;7101;51.600;7.310;2023-10-09T01:25:37;13.90;99.90
14053;DHT22;7101;51.600;7.310;2023-10-09T01:28:10;13.90;99.90
14053;DHT22;7101;51.600;7.310;2023-10-09T01:30:42;13.90;99.90
14053;DHT22;7101;51.600;7.310;2023-10-09T01:33:09;13.90;99.90
14053;DHT22;7101;51.600;7.310;2023-10-09T01:35:48;14.00;99.90
14053;DHT22;7101;51.600;7.310;2023-10-09T01:38:22;14.00;99.90
14053;DHT22;7101;51.600;7.310;2023-10-09T01:40:58;14.00;99.90
14053;DHT22;7101;51.600;7.310;2023-10-09T01:43:32;14.00;99.90
14053;DHT22;7101;51.600;7.310;2023-10-09T01:46:01;14.10;99.90
14053;DHT22;7101;51.600;7.310;2023-10-09T01:48:30;14.10;99.90
14053;DHT22;7101;51.600;7.310;2023-10-09T01:51:01;14.00;99.90
14053;DHT22;7101;51.600;7.310;2023-10-09T01:53:32;14.00;99.90
14053;DHT22;7101;51.600;7.310;2023-10-09T01:56:08;14.00;99.90
14053;DHT22;7101;51.600;7.310;2023-10-09T01:58:41;14.10;99.90
14053;DHT22;7101;51.600;7.310;2023-10-09T02:01:08;14.00;99.90
14053;DHT22;7101;51.600;7.310;2023-10-09T02:03:35;14.00;99.90
14053;DHT22;7101;51.600;7.310;2023-10-09T02:06:03;14.00;99.90
14053;DHT22;7101;51.600;7.310;2023-10-09T02:08:44;14.00;99.90
14053;DHT22;7101;51.600;7.310;2023-10-09T02:11:15;14.00;99.90
14053;DHT22;7101;51.600;7.310;2023-10-09T02:13:50;14.10;99.90
14053;DHT22;7101;51.600;7.310;2023-10-09T02:16:22;14.00;99.90
14053;DHT22;7101;51.600;7.310;2023-10-09T02:18:55;14.10;99.90
14053;DHT22;7101;51.600;7.310;2023-10-09T02:21:24;14.10;99.90
14053;DHT22;7101;51.600;7.310;2023-10-09T02:24:01;14.20;99.90
14053;DHT22;7101;51.600;7.310;2023-10-09T02:26:33;14.20;99.90
14053;DHT22;7101;51.600;7.310;2023-10-09T02:29:26;14.30;99.90
14053;DHT22;7101;51.600;7.310;2023-10-09T02:31:53;14.30;99.90
14053;DHT22;7101;51.600;7.310;2023-10-09T02:34:26;14.20;99.90
14053;DHT22;7101;51.600;7.310;2023-10-09T02:36:55;14.30;99.90
14053;DHT22;7101;51.600;7.310;2023-10-09T02:39:31;14.30;99.90
14053;DHT22;7101;51.600;7.310;2023-10-09T02:42:02;14.30;99.90
14053;DHT22;7101;51.600;7.310;2023-10-09T02:44:44;14.30;99.90
14053;DHT22;7101;51.600;7.310;2023-10-09T02:47:15;14.40;99.90
14053;DHT22;7101;51.600;7.310;2023-10-09T02:49:47;14.40;99.90
14053;DHT22;7101;51.600;7.310;2023-10-09T02:52:16;14.50;99.90
14053;DHT22;7101;51.600;7.310;2023-10-09T02:54:51;14.50;99.90
14053;DHT22;7101;51.600;7.310;2023-10-09T02:57:26;14.60;99.90
14053;DHT22;7101;51.600;7.310;2023-10-09T02:59:54;14.60;99.90
14053;DHT22;7101;51.600;7.310;2023-10-09T03:02:21;14.70;99.90
14053;DHT22;7101;51.600;7.310;2023-10-09T03:04:49;14.70;99.90
14053;DHT22;7101;51.600;7.310;2023-10-09T03:07:21;14.70;99.90
14053;DHT22;7101;51.600;7.310;2023-10-09T03:09:50;14.80;99.90
14053;DHT22;7101;51.600;7.310;2023-10-09T03:12:17;14.80;99.90
14053;DHT22;7101;51.600;7.310;2023-10-09T03:14:44;14.90;99.90
14053;DHT22;7101;51.600;7.310;2023-10-09T03:17:11;14.90;99.90
14053;DHT22;7101;51.600;7.310;2023-10-09T03:19:38;14.90;99.90
14053;DHT22;7101;51.600;7.310;2023-10-09T03:22:05;15.00;99.90
14053;DHT22;7101;51.600;7.310;2023-10-09T03:24:36;15.00;99.90
14053;DHT22;7101;51.600;7.310;2023-10-09T03:27:04;15.00;99.90
14053;DHT22;7101;51.600;7.310;2023-10-09T03:29:31;15.10;99.90
14053;DHT22;7101;51.600;7.310;2023-10-09T03:31:59;15.10;99.90
14053;DHT22;7101;51.600;7.310;2023-10-09T03:34:26;15.10;99.90
14053;DHT22;7101;51.600;7.310;2023-10-09T03:36:53;15.10;99.90
14053;DHT22;7101;51.600;7.310;2023-10-09T03:39:29;15.10;99.90
14053;DHT22;7101;51.600;7.310;2023-10-09T03:42:07;15.10;99.90
14053;DHT22;7101;51.600;7.310;2023-10-09T03:44:44;15.10;99.90
14053;DHT22;7101;51.600;7.310;2023-10-09T03:47:17;15.10;99.90
14053;DHT22;7101;51.600;7.310;2023-10-09T03:49:48;15.10;99.90
14053;DHT22;7101;51.600;7.310;2023-10-09T03:52:17;15.10;99.90
14053;DHT22;7101;51.600;7.310;2023-10-09T03:54:44;15.00;99.90
14053;DHT22;7101;51.600;7.310;2023-10-09T03:57:13;15.00;99.90
14053;DHT22;7101;51.600;7.310;2023-10-09T03:59:44;15.00;99.90
14053;DHT22;7101;51.600;7.310;2023-10-09T04:02:12;15.00;99.90
14053;DHT22;7101;51.600;7.310;2023-10-09T04:04:40;15.00;99.90
14053;DHT22;7101;51.600;7.310;2023-10-09T04:07:11;15.00;99.90
14053;DHT22;7101;51.600;7.310;2023-10-09T04:09:42;15.00;99.90
14053;DHT22;7101;51.600;7.310;2023-10-09T04:12:14;15.00;99.90
14053;DHT22;7101;51.600;7.310;2023-10-09T04:14:50;15.10;99.90
14053;DHT22;7101;51.600;7.310;2023-10-09T04:17:20;15.10;99.90
14053;DHT22;7101;51.600;7.310;2023-10-09T04:19:59;15.10;99.90
14053;DHT22;7101;51.600;7.310;2023-10-09T04:22:44;15.20;99.90
14053;DHT22;7101;51.600;7.310;2023-10-09T04:25:16;15.20;99.90
14053;DHT22;7101;51.600;7.310;2023-10-09T04:27:52;15.20;99.90
14053;DHT22;7101;51.600;7.310;2023-10-09T04:30:34;15.20;99.90
14053;DHT22;7101;51.600;7.310;2023-10-09T04:33:06;15.20;99.90
14053;DHT22;7101;51.600;7.310;2023-10-09T04:35:54;15.20;99.90
14053;DHT22;7101;51.600;7.310;2023-10-09T04:38:37;15.20;99.90
14053;DHT22;7101;51.600;7.310;2023-10-09T04:41:05;15.30;99.90
14053;DHT22;7101;51.600;7.310;2023-10-09T04:43:33;15.30;99.90
14053;DHT22;7101;51.600;7.310;2023-10-09T04:46:00;15.30;99.90
14053;DHT22;7101;51.600;7.310;2023-10-09T04:48:38;15.30;99.90
14053;DHT22;7101;51.600;7.310;2023-10-09T04:51:05;15.20;99.90
14053;DHT22;7101;51.600;7.310;2023-10-09T04:53:47;15.30;99.90
14053;DHT22;7101;51.600;7.310;2023-10-09T04:56:20;15.30;99.90
14053;DHT22;7101;51.600;7.310;2023-10-09T04:58:51;15.30;99.90
14053;DHT22;7101;51.600;7.310;2023-10-09T05:01:29;15.30;99.90
14053;DHT22;7101;51.600;7.310;2023-10-09T05:04:04;15.30;99.90
14053;DHT22;7101;51.600;7.310;2023-10-09T05:06:41;15.30;99.90
14053;DHT22;7101;51.600;7.310;2023-10-09T05:09:22;15.30;99.90
14053;DHT22;7101;51.600;7.310;2023-10-09T05:11:48;15.30;99.90
14053;DHT22;7101;51.600;7.310;2023-10-09T05:14:36;15.40;99.90
14053;DHT22;7101;51.600;7.310;2023-10-09T05:17:06;15.40;99.90
14053;DHT22;7101;51.600;7.310;2023-10-09T05:19:41;15.30;99.90
14053;DHT22;7101;51.600;7.310;2023-10-09T05:22:20;15.30;99.90
14053;DHT22;7101;51.600;7.310;2023-10-09T05:24:57;15.40;99.90
14053;DHT22;7101;51.600;7.310;2023-10-09T05:27:23;15.40;99.90
14053;DHT22;7101;51.600;7.310;2023-10-09T05:30:09;15.40;99.90
14053;DHT22;7101;51.600;7.310;2023-10-09T05:32:52;15.40;99.90
14053;DHT22;7101;51.600;7.310;2023-10-09T05:35:24;15.40;99.90
14053;DHT22;7101;51.600;7.310;2023-10-09T05:38:07;15.30;99.90
14053;DHT22;7101;51.600;7.310;2023-10-09T05:40:48;15.30;99.90
14053;DHT22;7101;51.600;7.310;2023-10-09T05:43:20;15.30;99.90
14053;DHT22;7101;51.600;7.310;2023-10-09T05:46:02;15.40;99.90
14053;DHT22;7101;51.600;7.310;2023-10-09T05:48:35;15.40;99.90
14053;DHT22;7101;51.600;7.310;2023-10-09T05:51:20;15.40;99.90
14053;DHT22;7101;51.600;7.310;2023-10-09T05:54:01;15.40;99.90
14053;DHT22;7101;51.600;7.310;2023-10-09T05:56:45;15.50;99.90
14053;DHT22;7101;51.600;7.310;2023-10-09T05:59:41;15.40;99.90
14053;DHT22;7101;51.600;7.310;2023-10-09T06:02:27;15.40;99.90
14053;DHT22;7101;51.600;7.310;2023-10-09T06:05:26;15.40;99.90
14053;DHT22;7101;51.600;7.310;2023-10-09T06:08:17;15.40;99.90
14053;DHT22;7101;51.600;7.310;2023-10-09T06:10:50;15.40;99.90
14053;DHT22;7101;51.600;7.310;2023-10-09T06:13:31;15.50;99.90
14053;DHT22;7101;51.600;7.310;2023-10-09T06:16:05;15.50;99.90
14053;DHT22;7101;51.600;7.310;2023-10-09T06:18:58;15.60;99.90
14053;DHT22;7101;51.600;7.310;2023-10-09T06:21:39;15.60;99.90
14053;DHT22;7101;51.600;7.310;2023-10-09T06:24:25;15.60;99.90
14053;DHT22;7101;51.600;7.310;2023-10-09T06:26:59;15.60;99.90
14053;DHT22;7101;51.600;7.310;2023-10-09T06:29:41;15.70;99.90
14053;DHT22;7101;51.600;7.310;2023-10-09T06:32:18;15.70;99.90
14053;DHT22;7101;51.600;7.310;2023-10-09T06:35:05;15.70;99.90
14053;DHT22;7101;51.600;7.310;2023-10-09T06:37:48;15.80;99.90
14053;DHT22;7101;51.600;7.310;2023-10-09T06:40:34;15.90;99.90
14053;DHT22;7101;51.600;7.310;2023-10-09T06:43:19;15.90;99.90
14053;DHT22;7101;51.600;7.310;2023-10-09T06:45:54;15.90;99.90
14053;DHT22;7101;51.600;7.310;2023-10-09T06:48:23;16.00;99.90
14053;DHT22;7101;51.600;7.310;2023-10-09T06:51:14;16.00;99.90
14053;DHT22;7101;51.600;7.310;2023-10-09T06:54:02;16.00;99.90
14053;DHT22;7101;51.600;7.310;2023-10-09T06:56:32;16.00;99.90
14053;DHT22;7101;51.600;7.310;2023-10-09T06:59:13;16.00;99.90
14053;DHT22;7101;51.600;7.310;2023-10-09T07:01:48;16.00;99.90
14053;DHT22;7101;51.600;7.310;2023-10-09T07:04:36;16.00;99.90
14053;DHT22;7101;51.600;7.310;2023-10-09T07:07:14;16.10;99.90
14053;DHT22;7101;51.600;7.310;2023-10-09T07:09:42;16.20;99.90
14053;DHT22;7101;51.600;7.310;2023-10-09T07:12:11;16.20;99.90
14053;DHT22;7101;51.600;7.310;2023-10-09T07:14:46;16.30;99.90
14053;DHT22;7101;51.600;7.310;2023-10-09T07:17:49;16.30;99.90
14053;DHT22;7101;51.600;7.310;2023-10-09T07:20:18;16.30;99.90
14053;DHT22;7101;51.600;7.310;2023-10-09T07:23:00;16.30;99.90
14053;DHT22;7101;51.600;7.310;2023-10-09T07:25:39;16.30;99.90
14053;DHT22;7101;51.600;7.310;2023-10-09T07:28:21;16.30;99.90
14053;DHT22;7101;51.600;7.310;2023-10-09T07:31:02;16.30;99.90
14053;DHT22;7101;51.600;7.310;2023-10-09T07:33:30;16.20;99.90
14053;DHT22;7101;51.600;7.310;2023-10-09T07:36:17;16.30;99.90
14053;DHT22;7101;51.600;7.310;2023-10-09T07:38:56;16.40;99.90
14053;DHT22;7101;51.600;7.310;2023-10-09T07:41:30;16.40;99.90
14053;DHT22;7101;51.600;7.310;2023-10-09T07:44:04;16.50;99.90
14053;DHT22;7101;51.600;7.310;2023-10-09T07:46:44;16.60;99.90
14053;DHT22;7101;51.600;7.310;2023-10-09T07:49:18;16.60;99.90
14053;DHT22;7101;51.600;7.310;2023-10-09T07:51:50;16.60;99.90
14053;DHT22;7101;51.600;7.310;2023-10-09T07:54:19;16.60;99.90
14053;DHT22;7101;51.600;7.310;2023-10-09T07:57:01;16.60;99.90
14053;DHT22;7101;51.600;7.310;2023-10-09T07:59:41;16.60;99.90
14053;DHT22;7101;51.600;7.310;2023-10-09T08:02:20;16.70;99.90
14053;DHT22;7101;51.600;7.310;2023-10-09T08:04:57;16.60;99.90
14053;DHT22;7101;51.600;7.310;2023-10-09T08:07:29;16.60;99.90
14053;DHT22;7101;51.600;7.310;2023-10-09T08:10:02;16.60;99.90
14053;DHT22;7101;51.600;7.310;2023-10-09T08:12:47;16.60;99.90
14053;DHT22;7101;51.600;7.310;2023-10-09T08:15:27;16.70;99.90
14053;DHT22;7101;51.600;7.310;2023-10-09T08:18:00;16.60;99.90
14053;DHT22;7101;51.600;7.310;2023-10-09T08:20:31;16.60;99.90
14053;DHT22;7101;51.600;7.310;2023-10-09T08:23:17;16.70;99.90
14053;DHT22;7101;51.600;7.310;2023-10-09T08:25:59;16.80;99.90
14053;DHT22;7101;51.600;7.310;2023-10-09T08:28:38;16.80;99.90
14053;DHT22;7101;51.600;7.310;2023-10-09T08:31:09;16.90;99.90
14053;DHT22;7101;51.600;7.310;2023-10-09T08:33:45;16.90;99.90
14053;DHT22;7101;51.600;7.310;2023-10-09T08:36:11;16.90;99.90
14053;DHT22;7101;51.600;7.310;2023-10-09T08:38:40;17.00;99.90
14053;DHT22;7101;51.600;7.310;2023-10-09T08:41:10;16.90;99.90
14053;DHT22;7101;51.600;7.310;2023-10-09T08:43:48;16.90;99.90
14053;DHT22;7101;51.600;7.310;2023-10-09T08:46:23;17.00;99.90
14053;DHT22;7101;51.600;7.310;2023-10-09T08:48:53;17.00;99.90
14053;DHT22;7101;51.600;7.310;2023-10-09T08:51:21;17.00;99.90
14053;DHT22;7101;51.600;7.310;2023-10-09T08:53:48;16.90;99.90
14053;DHT22;7101;51.600;7.310;2023-10-09T08:56:18;16.90;99.90
14053;DHT22;7101;51.600;7.310;2023-10-09T08:58:52;16.90;99.90
14053;DHT22;7101;51.600;7.310;2023-10-09T09:01:21;17.10;99.90
14053;DHT22;7101;51.600;7.310;2023-10-09T09:03:51;17.10;99.90
14053;DHT22;7101;51.600;7.310;2023-10-09T09:06:21;17.10;99.90
14053;DHT22;7101;51.600;7.310;2023-10-09T09:08:50;17.20;99.90
14053;DHT22;7101;51.600;7.310;2023-10-09T09:11:22;17.40;99.90
14053;DHT22;7101;51.600;7.310;2023-10-09T09:14:00;17.60;99.90
14053;DHT22;7101;51.600;7.310;2023-10-09T09:16:30;17.70;99.90
14053;DHT22;7101;51.600;7.310;2023-10-09T09:18:58;18.00;99.90
14053;DHT22;7101;51.600;7.310;2023-10-09T09:21:32;18.20;99.90
14053;DHT22;7101;51.600;7.310;2023-10-09T09:24:05;18.30;99.90
14053;DHT22;7101;51.600;7.310;2023-10-09T09:26:43;18.40;99.90
14053;DHT22;7101;51.600;7.310;2023-10-09T09:29:13;18.50;99.90
14053;DHT22;7101;51.600;7.310;2023-10-09T09:31:54;18.50;99.90
14053;DHT22;7101;51.600;7.310;2023-10-09T09:34:21;18.70;99.90
14053;DHT22;7101;51.600;7.310;2023-10-09T09:36:53;18.80;99.90
14053;DHT22;7101;51.600;7.310;2023-10-09T09:39:22;19.00;99.90
14053;DHT22;7101;51.600;7.310;2023-10-09T09:41:56;19.10;99.90
14053;DHT22;7101;51.600;7.310;2023-10-09T09:44:34;19.20;99.90
14053;DHT22;7101;51.600;7.310;2023-10-09T09:47:12;19.20;99.90
14053;DHT22;7101;51.600;7.310;2023-10-09T09:49:50;19.30;99.90
14053;DHT22;7101;51.600;7.310;2023-10-09T09:52:18;19.30;99.90
14053;DHT22;7101;51.600;7.310;2023-10-09T09:54:50;19.10;99.90
14053;DHT22;7101;51.600;7.310;2023-10-09T09:57:21;19.20;99.90
14053;DHT22;7101;51.600;7.310;2023-10-09T09:59:52;19.20;99.90
14053;DHT22;7101;51.600;7.310;2023-10-09T10:02:24;19.30;99.90
14053;DHT22;7101;51.600;7.310;2023-10-09T10:04:56;19.20;99.90
14053;DHT22;7101;51.600;7.310;2023-10-09T10:07:25;19.20;99.90
14053;DHT22;7101;51.600;7.310;2023-10-09T10:09:54;19.20;99.90
14053;DHT22;7101;51.600;7.310;2023-10-09T10:12:52;19.30;99.90
14053;DHT22;7101;51.600;7.310;2023-10-09T10:16:05;19.20;99.90
14053;DHT22;7101;51.600;7.310;2023-10-09T10:18:53;19.50;99.90
14053;DHT22;7101;51.600;7.310;2023-10-09T10:21:25;19.40;99.90
14053;DHT22;7101;51.600;7.310;2023-10-09T10:24:42;19.50;99.90
14053;DHT22;7101;51.600;7.310;2023-10-09T10:27:20;19.60;99.90
14053;DHT22;7101;51.600;7.310;2023-10-09T10:30:30;19.60;99.90
14053;DHT22;7101;51.600;7.310;2023-10-09T10:33:00;19.60;99.90
14053;DHT22;7101;51.600;7.310;2023-10-09T10:35:36;19.40;99.90
14053;DHT22;7101;51.600;7.310;2023-10-09T10:38:30;19.60;99.90
14053;DHT22;7101;51.600;7.310;2023-10-09T10:41:15;19.50;99.90
14053;DHT22;7101;51.600;7.310;2023-10-09T10:43:43;19.40;99.90
14053;DHT22;7101;51.600;7.310;2023-10-09T10:46:47;19.40;99.90
14053;DHT22;7101;51.600;7.310;2023-10-09T10:49:18;19.40;99.90
14053;DHT22;7101;51.600;7.310;2023-10-09T10:51:51;19.40;99.90
14053;DHT22;7101;51.600;7.310;2023-10-09T10:54:27;19.40;99.90
14053;DHT22;7101;51.600;7.310;2023-10-09T10:57:16;19.40;99.90
14053;DHT22;7101;51.600;7.310;2023-10-09T10:59:45;19.60;99.90
14053;DHT22;7101;51.600;7.310;2023-10-09T11:02:16;19.80;99.90
14053;DHT22;7101;51.600;7.310;2023-10-09T11:04:48;20.00;99.90
14053;DHT22;7101;51.600;7.310;2023-10-09T11:07:39;20.10;32.80
14053;DHT22;7101;51.600;7.310;2023-10-09T11:10:07;20.00;99.90
14053;DHT22;7101;51.600;7.310;2023-10-09T11:12:43;20.00;99.90
14053;DHT22;7101;51.600;7.310;2023-10-09T11:15:32;20.10;99.90
14053;DHT22;7101;51.600;7.310;2023-10-09T11:18:12;20.00;99.90
14053;DHT22;7101;51.600;7.310;2023-10-09T11:20:49;20.00;99.90
14053;DHT22;7101;51.600;7.310;2023-10-09T11:23:45;20.00;99.90
14053;DHT22;7101;51.600;7.310;2023-10-09T11:26:25;19.90;99.90
14053;DHT22;7101;51.600;7.310;2023-10-09T11:29:09;19.90;99.90
14053;DHT22;7101;51.600;7.310;2023-10-09T11:32:04;19.90;99.90
14053;DHT22;7101;51.600;7.310;2023-10-09T11:34:32;20.20;99.90
14053;DHT22;7101;51.600;7.310;2023-10-09T11:37:02;20.20;99.90
14053;DHT22;7101;51.600;7.310;2023-10-09T11:39:29;20.40;99.90
14053;DHT22;7101;51.600;7.310;2023-10-09T11:42:18;20.50;99.90
14053;DHT22;7101;51.600;7.310;2023-10-09T11:45:01;20.60;99.90
14053;DHT22;7101;51.600;7.310;2023-10-09T11:47:46;20.70;99.90
14053;DHT22;7101;51.600;7.310;2023-10-09T11:50:42;20.60;99.90
14053;DHT22;7101;51.600;7.310;2023-10-09T11:53:14;20.70;99.90
14053;DHT22;7101;51.600;7.310;2023-10-09T11:55:59;20.60;99.90
14053;DHT22;7101;51.600;7.310;2023-10-09T11:58:26;20.50;99.90
14053;DHT22;7101;51.600;7.310;2023-10-09T12:00:53;20.30;99.90
14053;DHT22;7101;51.600;7.310;2023-10-09T12:03:25;20.30;99.90
14053;DHT22;7101;51.600;7.310;2023-10-09T12:05:57;20.20;99.90
14053;DHT22;7101;51.600;7.310;2023-10-09T12:08:30;20.40;99.90
14053;DHT22;7101;51.600;7.310;2023-10-09T12:13:31;20.40;99.90
14053;DHT22;7101;51.600;7.310;2023-10-09T12:15:58;20.40;99.90
14053;DHT22;7101;51.600;7.310;2023-10-09T12:18:25;20.60;99.90
14053;DHT22;7101;51.600;7.310;2023-10-09T12:20:55;20.70;99.90
14053;DHT22;7101;51.600;7.310;2023-10-09T12:23:32;20.70;99.90
14053;DHT22;7101;51.600;7.310;2023-10-09T12:26:02;20.40;99.90
14053;DHT22;7101;51.600;7.310;2023-10-09T12:28:29;20.40;99.90
14053;DHT22;7101;51.600;7.310;2023-10-09T12:30:59;20.50;99.90
14053;DHT22;7101;51.600;7.310;2023-10-09T12:33:28;20.50;99.90
14053;DHT22;7101;51.600;7.310;2023-10-09T12:35:56;20.40;99.90
14053;DHT22;7101;51.600;7.310;2023-10-09T12:38:25;20.20;99.90
14053;DHT22;7101;51.600;7.310;2023-10-09T12:41:02;20.30;99.90
14053;DHT22;7101;51.600;7.310;2023-10-09T12:43:35;20.30;99.90
14053;DHT22;7101;51.600;7.310;2023-10-09T12:46:06;20.40;99.90
14053;DHT22;7101;51.600;7.310;2023-10-09T12:48:34;20.60;99.90
14053;DHT22;7101;51.600;7.310;2023-10-09T12:51:01;20.70;99.90
14053;DHT22;7101;51.600;7.310;2023-10-09T12:53:34;20.70;99.90
14053;DHT22;7101;51.600;7.310;2023-10-09T12:56:08;20.60;99.90
14053;DHT22;7101;51.600;7.310;2023-10-09T12:58:36;20.70;99.90
14053;DHT22;7101;51.600;7.310;2023-10-09T13:01:04;20.70;99.90
14053;DHT22;7101;51.600;7.310;2023-10-09T13:03:36;20.60;99.90
14053;DHT22;7101;51.600;7.310;2023-10-09T13:06:04;20.30;99.90
14053;DHT22;7101;51.600;7.310;2023-10-09T13:08:36;20.20;99.90
14053;DHT22;7101;51.600;7.310;2023-10-09T13:11:08;20.30;99.90
14053;DHT22;7101;51.600;7.310;2023-10-09T13:13:37;20.30;99.90
14053;DHT22;7101;51.600;7.310;2023-10-09T13:16:09;20.20;99.90
14053;DHT22;7101;51.600;7.310;2023-10-09T13:18:42;20.20;99.90
14053;DHT22;7101;51.600;7.310;2023-10-09T13:21:15;20.30;99.90
14053;DHT22;7101;51.600;7.310;2023-10-09T13:23:42;20.30;99.90
14053;DHT22;7101;51.600;7.310;2023-10-09T13:26:14;20.30;99.90
14053;DHT22;7101;51.600;7.310;2023-10-09T13:28:54;20.40;99.90
14053;DHT22;7101;51.600;7.310;2023-10-09T13:31:22;20.40;99.90
14053;DHT22;7101;51.600;7.310;2023-10-09T13:33:54;20.40;99.90
14053;DHT22;7101;51.600;7.310;2023-10-09T13:36:22;20.30;99.90
14053;DHT22;7101;51.600;7.310;2023-10-09T13:38:58;20.40;99.90
14053;DHT22;7101;51.600;7.310;2023-10-09T13:41:30;20.30;99.90
14053;DHT22;7101;51.600;7.310;2023-10-09T13:43:57;20.20;99.90
14053;DHT22;7101;51.600;7.310;2023-10-09T13:46:24;20.10;99.90
14053;DHT22;7101;51.600;7.310;2023-10-09T13:48:52;20.10;99.90
14053;DHT22;7101;51.600;7.310;2023-10-09T13:51:20;20.10;99.90
14053;DHT22;7101;51.600;7.310;2023-10-09T13:53:49;20.30;99.90
14053;DHT22;7101;51.600;7.310;2023-10-09T13:56:19;20.30;99.90
14053;DHT22;7101;51.600;7.310;2023-10-09T13:58:49;20.30;99.90
14053;DHT22;7101;51.600;7.310;2023-10-09T14:01:17;20.30;99.90
14053;DHT22;7101;51.600;7.310;2023-10-09T14:03:59;20.30;99.90
14053;DHT22;7101;51.600;7.310;2023-10-09T14:06:27;20.30;99.90
14053;DHT22;7101;51.600;7.310;2023-10-09T14:09:02;20.30;99.90
14053;DHT22;7101;51.600;7.310;2023-10-09T14:11:30;20.40;99.90
14053;DHT22;7101;51.600;7.310;2023-10-09T14:13:59;20.50;99.90
14053;DHT22;7101;51.600;7.310;2023-10-09T14:16:27;20.60;99.90
14053;DHT22;7101;51.600;7.310;2023-10-09T14:18:57;20.50;99.90
14053;DHT22;7101;51.600;7.310;2023-10-09T14:21:26;20.50;99.90
14053;DHT22;7101;51.600;7.310;2023-10-09T14:23:56;20.70;99.90
14053;DHT22;7101;51.600;7.310;2023-10-09T14:26:25;20.60;99.90
14053;DHT22;7101;51.600;7.310;2023-10-09T14:28:52;20.50;99.90
14053;DHT22;7101;51.600;7.310;2023-10-09T14:31:24;20.40;99.90
14053;DHT22;7101;51.600;7.310;2023-10-09T14:33:54;20.30;99.90
14053;DHT22;7101;51.600;7.310;2023-10-09T14:36:22;20.20;99.90
14053;DHT22;7101;51.600;7.310;2023-10-09T14:38:49;20.10;99.90
14053;DHT22;7101;51.600;7.310;2023-10-09T14:41:20;20.00;99.90
14053;DHT22;7101;51.600;7.310;2023-10-09T14:43:50;20.00;99.90
14053;DHT22;7101;51.600;7.310;2023-10-09T14:46:18;19.90;99.90
14053;DHT22;7101;51.600;7.310;2023-10-09T14:48:52;19.80;99.90
14053;DHT22;7101;51.600;7.310;2023-10-09T14:51:20;19.80;99.90
14053;DHT22;7101;51.600;7.310;2023-10-09T14:53:53;19.80;99.90
14053;DHT22;7101;51.600;7.310;2023-10-09T14:56:24;19.80;99.90
14053;DHT22;7101;51.600;7.310;2023-10-09T14:58:55;19.70;99.90
14053;DHT22;7101;51.600;7.310;2023-10-09T15:01:25;19.60;99.90
14053;DHT22;7101;51.600;7.310;2023-10-09T15:03:56;19.70;99.90
14053;DHT22;7101;51.600;7.310;2023-10-09T15:06:28;19.60;99.90
14053;DHT22;7101;51.600;7.310;2023-10-09T15:08:58;19.60;99.90
14053;DHT22;7101;51.600;7.310;2023-10-09T15:11:26;19.60;99.90
14053;DHT22;7101;51.600;7.310;2023-10-09T15:13:54;19.60;99.90
14053;DHT22;7101;51.600;7.310;2023-10-09T15:16:21;19.50;99.90
14053;DHT22;7101;51.600;7.310;2023-10-09T15:18:53;19.50;99.90
14053;DHT22;7101;51.600;7.310;2023-10-09T15:21:23;19.50;99.90
14053;DHT22;7101;51.600;7.310;2023-10-09T15:23:53;19.50;99.90
14053;DHT22;7101;51.600;7.310;2023-10-09T15:26:21;19.40;99.90
14053;DHT22;7101;51.600;7.310;2023-10-09T15:28:50;19.40;99.90
14053;DHT22;7101;51.600;7.310;2023-10-09T15:31:17;19.40;99.90
14053;DHT22;7101;51.600;7.310;2023-10-09T15:33:47;19.40;99.90
14053;DHT22;7101;51.600;7.310;2023-10-09T15:36:17;19.40;99.90
14053;DHT22;7101;51.600;7.310;2023-10-09T15:38:47;19.40;99.90
14053;DHT22;7101;51.600;7.310;2023-10-09T15:41:15;19.40;99.90
14053;DHT22;7101;51.600;7.310;2023-10-09T15:43:42;19.40;99.90
14053;DHT22;7101;51.600;7.310;2023-10-09T15:46:11;19.40;99.90
14053;DHT22;7101;51.600;7.310;2023-10-09T15:48:40;19.40;99.90
14053;DHT22;7101;51.600;7.310;2023-10-09T15:51:09;19.40;99.90
14053;DHT22;7101;51.600;7.310;2023-10-09T15:53:41;19.40;99.90
14053;DHT22;7101;51.600;7.310;2023-10-09T15:56:09;19.40;99.90
14053;DHT22;7101;51.600;7.310;2023-10-09T15:58:38;19.40;99.90
14053;DHT22;7101;51.600;7.310;2023-10-09T16:01:09;19.40;99.90
14053;DHT22;7101;51.600;7.310;2023-10-09T16:03:39;19.30;99.90
14053;DHT22;7101;51.600;7.310;2023-10-09T16:06:06;19.30;99.90
14053;DHT22;7101;51.600;7.310;2023-10-09T16:08:37;19.30;99.90
14053;DHT22;7101;51.600;7.310;2023-10-09T16:28:16;19.30;99.90
14053;DHT22;7101;51.600;7.310;2023-10-09T16:30:43;19.20;99.90
14053;DHT22;7101;51.600;7.310;2023-10-09T16:33:10;19.20;99.90
14053;DHT22;7101;51.600;7.310;2023-10-09T16:35:36;19.20;99.90
14053;DHT22;7101;51.600;7.310;2023-10-09T16:38:05;19.20;99.90
14053;DHT22;7101;51.600;7.310;2023-10-09T16:40:37;19.10;99.90
14053;DHT22;7101;51.600;7.310;2023-10-09T16:43:04;19.20;99.90
14053;DHT22;7101;51.600;7.310;2023-10-09T16:45:40;19.10;99.90
14053;DHT22;7101;51.600;7.310;2023-10-09T17:13:56;18.70;99.90